createdAt,value
2022-10-23T00:01:26.420Z,19.80
2022-10-23T00:03:59.100Z,19.80
2022-10-23T00:06:28.200Z,19.80
2022-10-23T00:08:56.130Z,19.80
2022-10-23T00:11:26.701Z,19.80
2022-10-23T00:13:55.513Z,19.80
2022-10-23T00:16:22.606Z,19.80
2022-10-23T00:18:49.697Z,19.80
2022-10-23T00:21:17.505Z,19.80
2022-10-23T00:23:46.193Z,19.80
2022-10-23T00:26:17.455Z,19.80
2022-10-23T00:28:46.825Z,19.70
2022-10-23T00:31:14.349Z,19.70
2022-10-23T00:33:42.517Z,19.70
2022-10-23T00:36:11.617Z,19.70
2022-10-23T00:38:39.094Z,19.70
2022-10-23T00:41:07.605Z,19.70
2022-10-23T00:43:35.682Z,19.70
2022-10-23T00:46:02.814Z,19.70
2022-10-23T00:48:29.893Z,19.70
2022-10-23T00:50:56.979Z,19.70
2022-10-23T00:53:24.815Z,19.70
2022-10-23T00:55:54.779Z,19.70
2022-10-23T00:58:22.176Z,19.70
2022-10-23T01:00:52.585Z,19.80
2022-10-23T01:03:23.355Z,19.80
2022-10-23T01:05:50.371Z,19.80
2022-10-23T01:08:40.314Z,19.80
2022-10-23T01:11:21.375Z,19.80
2022-10-23T01:14:11.564Z,19.80
2022-10-23T01:16:53.089Z,19.80
2022-10-23T01:19:42.752Z,19.80
2022-10-23T01:22:29.231Z,19.80
2022-10-23T01:25:04.656Z,19.80
2022-10-23T01:27:38.667Z,19.70
2022-10-23T01:30:15.859Z,19.70
2022-10-23T01:32:45.895Z,19.70
2022-10-23T01:35:34.947Z,19.70
2022-10-23T01:38:13.998Z,19.70
2022-10-23T01:41:07.151Z,19.70
2022-10-23T01:43:44.144Z,19.70
2022-10-23T01:46:16.103Z,19.70
2022-10-23T01:48:53.347Z,19.70
2022-10-23T01:51:24.867Z,19.70
2022-10-23T01:53:58.031Z,19.70
2022-10-23T01:56:32.738Z,19.70
2022-10-23T01:59:04.912Z,19.70
2022-10-23T02:01:34.757Z,19.70
2022-10-23T02:04:05.411Z,19.70
2022-10-23T02:06:32.743Z,19.80
2022-10-23T02:08:59.890Z,19.70
2022-10-23T02:11:27.004Z,19.70
2022-10-23T02:14:18.811Z,19.70
2022-10-23T02:16:53.706Z,19.70
2022-10-23T02:19:54.713Z,19.70
2022-10-23T02:22:39.682Z,19.70
2022-10-23T02:25:09.632Z,19.70
2022-10-23T02:27:40.801Z,19.70
2022-10-23T02:30:13.643Z,19.70
2022-10-23T02:32:45.866Z,19.80
2022-10-23T02:35:14.092Z,19.80
2022-10-23T02:37:41.483Z,19.80
2022-10-23T02:40:09.852Z,19.90
2022-10-23T02:42:45.308Z,19.80
2022-10-23T02:45:45.352Z,19.80
2022-10-23T02:48:22.620Z,19.80
2022-10-23T02:51:10.751Z,19.80
2022-10-23T02:53:46.911Z,19.80
2022-10-23T02:56:34.460Z,19.80
2022-10-23T02:59:17.668Z,19.70
2022-10-23T03:02:02.742Z,19.70
2022-10-23T03:04:31.813Z,19.70
2022-10-23T03:06:59.013Z,19.70
2022-10-23T03:09:27.014Z,19.70
2022-10-23T03:11:54.165Z,19.70
2022-10-23T03:14:21.262Z,19.70
2022-10-23T03:16:48.287Z,19.70
2022-10-23T03:19:15.404Z,19.70
2022-10-23T03:21:42.435Z,19.70
2022-10-23T03:24:09.466Z,19.60
2022-10-23T03:26:36.507Z,19.60
2022-10-23T03:29:03.581Z,19.60
2022-10-23T03:31:30.654Z,19.60
2022-10-23T03:33:57.732Z,19.60
2022-10-23T03:36:24.870Z,19.50
2022-10-23T03:38:52.357Z,19.50
2022-10-23T03:41:19.499Z,19.50
2022-10-23T03:43:46.535Z,19.50
2022-10-23T03:46:13.691Z,19.60
2022-10-23T03:48:41.959Z,19.60
2022-10-23T03:51:09.027Z,19.60
2022-10-23T03:53:36.076Z,19.70
2022-10-23T03:56:03.198Z,19.70
2022-10-23T03:58:31.422Z,19.60
2022-10-23T04:00:58.699Z,19.60
2022-10-23T04:03:25.827Z,19.60
2022-10-23T04:05:52.903Z,19.60
2022-10-23T04:08:20.258Z,19.60
2022-10-23T04:10:47.549Z,19.60
2022-10-23T04:13:14.734Z,19.60
2022-10-23T04:15:47.410Z,19.60
2022-10-23T04:18:14.473Z,19.60
2022-10-23T04:20:41.511Z,19.60
2022-10-23T04:23:08.539Z,19.60
2022-10-23T04:25:35.597Z,19.70
2022-10-23T04:28:02.655Z,19.60
2022-10-23T04:30:29.693Z,19.70
2022-10-23T04:32:56.748Z,19.70
2022-10-23T04:35:23.803Z,19.70
2022-10-23T04:37:50.887Z,19.70
2022-10-23T04:40:17.927Z,19.70
2022-10-23T04:42:45.189Z,19.70
2022-10-23T04:45:12.757Z,19.70
2022-10-23T04:47:39.775Z,19.70
2022-10-23T04:50:07.163Z,19.70
2022-10-23T04:52:34.237Z,19.70
2022-10-23T04:55:01.272Z,19.70
2022-10-23T04:57:28.293Z,19.70
2022-10-23T04:59:55.468Z,19.70
2022-10-23T05:02:24.241Z,19.70
2022-10-23T05:04:51.320Z,19.60
2022-10-23T05:07:18.386Z,19.60
2022-10-23T05:09:45.431Z,19.60
2022-10-23T05:12:12.489Z,19.60
2022-10-23T05:14:39.529Z,19.60
2022-10-23T05:17:16.016Z,19.60
2022-10-23T05:19:51.024Z,19.60
2022-10-23T05:22:19.938Z,19.60
2022-10-23T05:24:49.735Z,19.80
2022-10-23T05:27:17.937Z,19.70
2022-10-23T05:29:44.993Z,19.70
2022-10-23T05:32:14.388Z,19.70
2022-10-23T05:34:42.437Z,19.80
2022-10-23T05:37:13.177Z,19.70
2022-10-23T05:39:40.284Z,19.70
2022-10-23T05:42:07.421Z,19.70
2022-10-23T05:44:35.317Z,19.70
2022-10-23T05:47:02.478Z,19.70
2022-10-23T05:49:29.560Z,19.70
2022-10-23T05:51:56.587Z,19.70
2022-10-23T05:54:23.662Z,19.70
2022-10-23T05:56:51.731Z,19.70
2022-10-23T05:59:21.996Z,19.70
2022-10-23T06:01:50.455Z,19.70
2022-10-23T06:04:17.621Z,19.70
2022-10-23T06:06:46.463Z,19.60
2022-10-23T06:09:15.065Z,19.60
2022-10-23T06:11:42.544Z,19.60
2022-10-23T06:14:09.755Z,19.60
2022-10-23T06:16:36.873Z,19.70
2022-10-23T06:19:04.219Z,19.60
2022-10-23T06:21:31.260Z,19.70
2022-10-23T06:23:58.322Z,19.60
2022-10-23T06:26:25.436Z,19.70
2022-10-23T06:28:52.454Z,19.70
2022-10-23T06:31:20.279Z,19.70
2022-10-23T06:33:47.425Z,19.60
2022-10-23T06:36:14.527Z,19.70
2022-10-23T06:38:41.594Z,19.70
2022-10-23T06:41:16.994Z,19.70
2022-10-23T06:43:44.329Z,19.70
2022-10-23T06:46:11.365Z,19.60
2022-10-23T06:48:38.491Z,19.80
2022-10-23T06:51:07.646Z,19.70
2022-10-23T06:53:35.851Z,19.70
2022-10-23T06:56:05.437Z,19.70
2022-10-23T06:58:33.643Z,19.70
2022-10-23T07:01:02.595Z,19.70
2022-10-23T07:03:29.823Z,19.70
2022-10-23T07:05:59.659Z,19.70
2022-10-23T07:08:26.717Z,19.70
2022-10-23T07:10:54.156Z,19.70
2022-10-23T07:13:22.291Z,19.60
2022-10-23T07:15:49.324Z,19.70
2022-10-23T07:18:16.898Z,19.70
2022-10-23T07:20:44.060Z,19.60
2022-10-23T07:23:12.071Z,19.70
2022-10-23T07:25:39.105Z,19.70
2022-10-23T07:28:06.868Z,19.70
2022-10-23T07:30:34.132Z,19.70
2022-10-23T07:33:01.160Z,19.70
2022-10-23T07:35:28.268Z,19.70
2022-10-23T07:37:55.446Z,19.70
2022-10-23T07:40:22.533Z,19.70
2022-10-23T07:42:49.548Z,19.70
2022-10-23T07:45:16.742Z,19.70
2022-10-23T07:47:44.048Z,19.60
2022-10-23T07:50:11.428Z,19.70
2022-10-23T07:52:38.512Z,19.60
2022-10-23T07:55:05.849Z,19.70
2022-10-23T07:57:32.897Z,19.70
2022-10-23T07:59:59.955Z,19.70
2022-10-23T08:02:27.145Z,19.70
2022-10-23T08:04:54.201Z,19.60
2022-10-23T08:07:21.249Z,19.70
2022-10-23T08:09:48.287Z,19.70
2022-10-23T08:12:15.345Z,19.70
2022-10-23T08:14:42.390Z,19.70
2022-10-23T08:17:09.921Z,19.70
2022-10-23T08:19:37.541Z,19.70
2022-10-23T08:22:04.622Z,19.70
2022-10-23T08:24:31.681Z,19.60
2022-10-23T08:26:59.307Z,19.50
2022-10-23T08:29:26.345Z,19.40
2022-10-23T08:31:56.193Z,19.30
2022-10-23T08:34:23.834Z,19.30
2022-10-23T08:36:51.121Z,19.20
2022-10-23T08:39:18.327Z,19.30
2022-10-23T08:41:51.367Z,19.40
2022-10-23T08:44:58.197Z,19.40
2022-10-23T08:47:33.060Z,19.50
2022-10-23T08:50:07.398Z,19.50
2022-10-23T08:52:41.355Z,19.60
2022-10-23T08:55:17.511Z,19.60
2022-10-23T08:58:29.273Z,19.60
2022-10-23T09:00:56.334Z,19.70
2022-10-23T09:03:23.527Z,19.70
2022-10-23T09:06:25.264Z,19.70
2022-10-23T09:09:04.738Z,19.70
2022-10-23T09:11:40.923Z,19.70
2022-10-23T09:14:41.362Z,19.70
2022-10-23T09:17:22.870Z,19.70
2022-10-23T09:19:56.763Z,19.70
2022-10-23T09:22:23.863Z,19.70
2022-10-23T09:24:53.787Z,19.70
2022-10-23T09:27:21.506Z,19.60
2022-10-23T09:29:51.803Z,19.70
2022-10-23T09:32:20.673Z,19.70
2022-10-23T09:34:55.387Z,19.60
2022-10-23T09:37:31.319Z,19.70
2022-10-23T09:40:25.527Z,19.70
2022-10-23T09:42:56.092Z,19.70
2022-10-23T09:45:42.482Z,19.70
2022-10-23T09:48:17.824Z,19.70
2022-10-23T09:51:03.578Z,19.70
2022-10-23T09:53:40.331Z,19.70
2022-10-23T09:56:25.983Z,19.70
2022-10-23T09:58:59.840Z,19.70
2022-10-23T10:01:33.222Z,19.80
2022-10-23T10:04:00.403Z,19.80
2022-10-23T10:06:33.167Z,19.80
2022-10-23T10:09:05.427Z,19.80
2022-10-23T10:11:56.500Z,19.80
2022-10-23T10:14:51.616Z,19.80
2022-10-23T10:17:41.803Z,19.80
2022-10-23T10:20:28.649Z,19.80
2022-10-23T10:23:17.785Z,19.80
2022-10-23T10:26:09.032Z,19.80
2022-10-23T10:29:08.410Z,19.80
2022-10-23T10:31:56.816Z,19.80
2022-10-23T10:34:38.964Z,19.70
2022-10-23T10:37:26.445Z,19.80
2022-10-23T10:40:13.948Z,19.80
2022-10-23T10:42:58.525Z,19.80
2022-10-23T10:45:32.732Z,19.80
2022-10-23T10:48:21.430Z,19.80
2022-10-23T10:50:52.090Z,19.80
2022-10-23T10:53:27.561Z,19.80
2022-10-23T10:55:56.890Z,19.80
2022-10-23T10:58:38.984Z,19.80
2022-10-23T11:01:26.335Z,19.80
2022-10-23T11:04:11.849Z,19.80
2022-10-23T11:06:39.322Z,19.80
2022-10-23T11:09:20.540Z,19.80
2022-10-23T11:11:49.045Z,19.80
2022-10-23T11:14:23.085Z,19.80
2022-10-23T11:16:53.025Z,19.80
2022-10-23T11:19:30.462Z,19.80
2022-10-23T11:22:06.478Z,19.80
2022-10-23T11:24:50.066Z,19.80
2022-10-23T11:27:40.473Z,19.80
2022-10-23T11:30:34.578Z,19.70
2022-10-23T11:33:15.194Z,19.80
2022-10-23T11:36:20.524Z,19.80
2022-10-23T11:38:50.118Z,19.80
2022-10-23T11:41:26.689Z,19.70
2022-10-23T11:44:04.519Z,19.70
2022-10-23T11:46:38.683Z,19.50
2022-10-23T11:49:19.287Z,19.50
2022-10-23T11:51:46.579Z,19.60
2022-10-23T11:54:24.833Z,19.60
2022-10-23T11:57:11.699Z,19.60
2022-10-23T11:59:47.879Z,19.70
2022-10-23T12:02:37.400Z,19.70
2022-10-23T12:05:06.455Z,19.70
2022-10-23T12:07:37.563Z,19.70
2022-10-23T12:10:22.567Z,19.70
2022-10-23T12:13:01.809Z,19.70
2022-10-23T12:15:29.459Z,19.60
2022-10-23T12:18:13.062Z,19.70
2022-10-23T12:20:43.137Z,19.70
2022-10-23T12:23:25.420Z,19.70
2022-10-23T12:26:07.344Z,19.80
2022-10-23T12:28:40.195Z,19.80
2022-10-23T12:31:44.243Z,19.80
2022-10-23T12:34:50.780Z,19.80
2022-10-23T12:37:44.021Z,19.80
2022-10-23T12:40:12.332Z,19.80
2022-10-23T12:42:39.517Z,19.80
2022-10-23T12:45:20.388Z,19.80
2022-10-23T12:47:49.524Z,19.90
2022-10-23T12:50:18.096Z,19.80
2022-10-23T12:53:16.588Z,19.80
2022-10-23T12:55:55.609Z,19.90
2022-10-23T12:58:33.908Z,19.90
2022-10-23T13:01:03.705Z,19.70
2022-10-23T13:03:32.541Z,19.70
2022-10-23T13:06:02.804Z,19.60
2022-10-23T13:08:38.978Z,19.50
2022-10-23T13:11:09.633Z,19.50
2022-10-23T13:13:36.717Z,19.50
2022-10-23T13:16:14.714Z,19.40
2022-10-23T13:18:42.241Z,19.40
2022-10-23T13:21:23.538Z,19.40
2022-10-23T13:23:52.009Z,19.40
2022-10-23T13:26:33.526Z,19.30
2022-10-23T13:29:07.378Z,19.30
2022-10-23T13:31:37.026Z,19.20
2022-10-23T13:34:13.590Z,19.20
2022-10-23T13:36:54.157Z,19.30
2022-10-23T13:39:27.242Z,19.30
2022-10-23T13:41:54.344Z,19.30
2022-10-23T13:44:23.706Z,19.40
2022-10-23T13:46:52.133Z,19.40
2022-10-23T13:49:19.902Z,19.40
2022-10-23T13:51:55.284Z,19.40
2022-10-23T13:54:25.135Z,19.40
2022-10-23T13:56:53.444Z,19.40
2022-10-23T13:59:21.188Z,19.40
2022-10-23T14:01:50.269Z,19.40
2022-10-23T14:04:18.929Z,19.40
2022-10-23T14:06:46.135Z,19.40
2022-10-23T14:09:16.590Z,19.30
2022-10-23T14:11:44.050Z,19.40
2022-10-23T14:14:11.087Z,19.30
2022-10-23T14:16:38.119Z,19.30
2022-10-23T14:19:05.221Z,19.30
2022-10-23T14:21:32.255Z,19.30
2022-10-23T14:23:59.348Z,19.30
2022-10-23T14:26:30.054Z,19.20
2022-10-23T14:29:01.108Z,19.20
2022-10-23T14:31:32.195Z,19.20
2022-10-23T14:34:00.802Z,19.20
2022-10-23T14:36:38.341Z,19.20
2022-10-23T14:39:16.023Z,19.20
2022-10-23T14:41:43.186Z,19.20
2022-10-23T14:44:10.351Z,19.20
2022-10-23T14:46:38.168Z,19.20
2022-10-23T14:49:05.527Z,19.20
2022-10-23T14:51:32.856Z,19.30
2022-10-23T14:54:02.491Z,19.30
2022-10-23T14:56:31.885Z,19.30
2022-10-23T14:59:02.741Z,19.30
2022-10-23T15:01:41.234Z,19.20
2022-10-23T15:04:14.229Z,19.10
2022-10-23T15:06:41.860Z,19.00
2022-10-23T15:09:09.076Z,19.00
2022-10-23T15:11:36.184Z,18.90
2022-10-23T15:14:03.276Z,18.90
2022-10-23T15:16:30.740Z,18.90
2022-10-23T15:18:57.800Z,18.90
2022-10-23T15:21:24.957Z,18.80
2022-10-23T15:23:52.915Z,18.80
2022-10-23T15:26:22.794Z,18.80
2022-10-23T15:28:54.689Z,18.80
2022-10-23T15:31:43.041Z,18.80
2022-10-23T15:34:21.817Z,18.80
2022-10-23T15:36:49.461Z,18.80
2022-10-23T15:39:20.546Z,18.70
2022-10-23T15:41:49.823Z,18.70
2022-10-23T15:44:19.462Z,18.70
2022-10-23T15:46:47.027Z,18.80
2022-10-23T15:49:14.518Z,18.70
2022-10-23T15:51:42.750Z,18.70
2022-10-23T15:54:16.364Z,18.70
2022-10-23T15:56:44.328Z,18.70
2022-10-23T15:59:11.406Z,18.70
2022-10-23T16:01:39.089Z,18.70
2022-10-23T16:04:06.486Z,18.80
2022-10-23T16:06:33.694Z,19.00
2022-10-23T16:09:00.774Z,19.20
2022-10-23T16:11:30.931Z,19.30
2022-10-23T16:13:59.554Z,19.40
2022-10-23T16:16:28.059Z,19.50
2022-10-23T16:18:55.448Z,19.60
2022-10-23T16:21:28.201Z,19.60
2022-10-23T16:23:57.135Z,19.70
2022-10-23T16:26:24.399Z,19.70
2022-10-23T16:28:55.872Z,19.70
2022-10-23T16:31:24.260Z,19.80
2022-10-23T16:33:52.025Z,19.80
2022-10-23T16:36:20.106Z,19.80
2022-10-23T16:38:47.239Z,19.80
2022-10-23T16:41:14.360Z,19.80
2022-10-23T16:43:41.479Z,19.80
2022-10-23T16:46:13.411Z,19.80
2022-10-23T16:48:41.155Z,19.80
2022-10-23T16:51:14.871Z,19.80
2022-10-23T16:53:43.336Z,19.80
2022-10-23T16:56:12.959Z,19.80
2022-10-23T16:58:40.857Z,19.80
2022-10-23T17:01:14.748Z,19.80
2022-10-23T17:03:44.572Z,19.90
2022-10-23T17:06:14.240Z,19.80
2022-10-23T17:08:41.828Z,19.90
2022-10-23T17:11:13.101Z,19.80
2022-10-23T17:14:11.221Z,19.80
2022-10-23T17:16:51.340Z,19.80
2022-10-23T17:19:40.123Z,19.90
2022-10-23T17:22:12.468Z,19.80
2022-10-23T17:24:41.084Z,19.80
2022-10-23T17:27:08.370Z,19.80
2022-10-23T17:29:35.660Z,19.80
2022-10-23T17:32:03.037Z,19.80
2022-10-23T17:34:30.112Z,19.80
2022-10-23T17:36:57.245Z,19.90
2022-10-23T17:39:27.011Z,19.90
2022-10-23T17:41:55.393Z,19.90
2022-10-23T17:44:22.969Z,19.90
2022-10-23T17:46:54.697Z,19.90
2022-10-23T17:49:22.641Z,19.90
2022-10-23T17:51:54.946Z,19.90
2022-10-23T17:54:23.357Z,19.90
2022-10-23T17:56:50.469Z,19.90
2022-10-23T17:59:20.846Z,19.90
2022-10-23T18:01:48.870Z,19.90
2022-10-23T18:04:18.965Z,19.90
2022-10-23T18:06:49.633Z,19.90
2022-10-23T18:09:17.417Z,19.90
2022-10-23T18:11:48.024Z,19.90
2022-10-23T18:14:17.453Z,19.90
2022-10-23T18:16:45.624Z,19.90
2022-10-23T18:19:14.041Z,19.90
2022-10-23T18:21:41.410Z,19.90
2022-10-23T18:24:10.028Z,19.90
2022-10-23T18:26:39.003Z,19.90
2022-10-23T18:29:09.705Z,19.90
2022-10-23T18:31:37.314Z,19.90
2022-10-23T18:34:07.770Z,19.90
2022-10-23T18:36:37.756Z,19.90
2022-10-23T18:39:06.891Z,19.90
2022-10-23T18:41:37.067Z,19.90
2022-10-23T18:44:04.562Z,19.90
2022-10-23T18:46:32.068Z,19.90
2022-10-23T18:48:59.529Z,19.90
2022-10-23T18:51:32.155Z,19.80
2022-10-23T18:54:04.260Z,19.90
2022-10-23T18:56:32.276Z,19.80
2022-10-23T18:59:01.774Z,19.90
2022-10-23T19:01:30.713Z,19.90
2022-10-23T19:04:00.309Z,19.90
2022-10-23T19:06:28.908Z,19.90
2022-10-23T19:08:56.457Z,19.90
2022-10-23T19:11:25.252Z,19.90
2022-10-23T19:13:52.656Z,19.90
2022-10-23T19:16:30.452Z,19.90
2022-10-23T19:19:04.900Z,19.90
2022-10-23T19:21:36.584Z,19.90
2022-10-23T19:24:07.499Z,19.90
2022-10-23T19:26:37.276Z,19.90
2022-10-23T19:29:07.310Z,19.90
2022-10-23T19:31:34.377Z,19.90
2022-10-23T19:34:01.483Z,19.90
2022-10-23T19:36:28.552Z,19.90
2022-10-23T19:38:56.981Z,19.90
2022-10-23T19:41:24.985Z,19.90
2022-10-23T19:43:52.020Z,19.90
2022-10-23T19:46:19.141Z,20.00
2022-10-23T19:48:46.704Z,19.90
2022-10-23T19:51:13.904Z,19.90
2022-10-23T19:53:42.521Z,19.90
2022-10-23T19:56:11.791Z,19.90
2022-10-23T19:58:41.225Z,19.90
2022-10-23T20:01:14.085Z,19.90
2022-10-23T20:03:42.852Z,19.90
2022-10-23T20:06:11.925Z,19.90
2022-10-23T20:08:39.637Z,19.90
2022-10-23T20:11:07.509Z,19.90
2022-10-23T20:13:35.065Z,19.90
2022-10-23T20:16:02.211Z,19.90
2022-10-23T20:18:29.345Z,19.90
2022-10-23T20:20:56.393Z,19.90
2022-10-23T20:23:24.047Z,19.90
2022-10-23T20:25:51.094Z,19.90
2022-10-23T20:28:18.149Z,19.90
2022-10-23T20:30:45.915Z,19.90
2022-10-23T20:33:13.018Z,19.90
2022-10-23T20:35:43.543Z,19.90
2022-10-23T20:38:10.689Z,19.90
2022-10-23T20:40:37.853Z,19.90
2022-10-23T20:43:05.032Z,19.90
2022-10-23T20:45:32.113Z,19.90
2022-10-23T20:47:59.160Z,19.90
2022-10-23T20:50:26.406Z,19.90
2022-10-23T20:52:53.454Z,19.90
2022-10-23T20:55:20.510Z,19.90
2022-10-23T20:57:47.616Z,19.80
2022-10-23T21:00:15.525Z,19.90
2022-10-23T21:02:45.789Z,19.90
2022-10-23T21:05:14.308Z,19.90
2022-10-23T21:07:41.347Z,19.90
2022-10-23T21:10:08.690Z,19.90
2022-10-23T21:12:35.723Z,19.90
2022-10-23T21:15:02.842Z,19.90
2022-10-23T21:17:35.582Z,19.90
2022-10-23T21:20:03.291Z,19.90
2022-10-23T21:22:30.427Z,19.90
2022-10-23T21:24:58.779Z,19.90
2022-10-23T21:27:26.059Z,19.90
2022-10-23T21:29:53.096Z,19.90
2022-10-23T21:32:20.745Z,19.90
2022-10-23T21:34:47.808Z,19.90
2022-10-23T21:37:15.235Z,19.90
2022-10-23T21:39:44.205Z,19.90
2022-10-23T21:42:13.013Z,19.90
2022-10-23T21:44:40.313Z,19.90
2022-10-23T21:47:07.536Z,19.90
2022-10-23T21:49:34.660Z,19.90
2022-10-23T21:52:01.847Z,19.90
2022-10-23T21:54:28.908Z,19.90
2022-10-23T21:56:55.959Z,19.90
2022-10-23T21:59:29.959Z,19.90
2022-10-23T22:01:59.186Z,19.80
2022-10-23T22:04:26.354Z,19.80
2022-10-23T22:06:53.545Z,19.80
2022-10-23T22:09:21.787Z,19.80
2022-10-23T22:11:50.128Z,19.80
2022-10-23T22:14:17.722Z,19.80
2022-10-23T22:16:44.823Z,19.80
2022-10-23T22:19:13.791Z,19.80
2022-10-23T22:21:41.820Z,19.80
2022-10-23T22:24:09.363Z,19.80
2022-10-23T22:26:39.397Z,19.80
2022-10-23T22:29:09.872Z,19.80
2022-10-23T22:31:38.748Z,19.80
2022-10-23T22:34:18.754Z,19.80
2022-10-23T22:36:54.633Z,19.80
2022-10-23T22:39:22.125Z,19.80
2022-10-23T22:41:49.558Z,19.80
2022-10-23T22:44:16.890Z,19.80
2022-10-23T22:46:44.383Z,19.80
2022-10-23T22:49:11.527Z,19.80
2022-10-23T22:51:39.721Z,19.90
2022-10-23T22:54:06.915Z,19.80
2022-10-23T22:56:34.552Z,19.90
2022-10-23T22:59:03.329Z,19.90
2022-10-23T23:01:38.412Z,19.90
2022-10-23T23:04:19.515Z,19.90
2022-10-23T23:06:52.618Z,19.90
2022-10-23T23:09:20.084Z,19.90
2022-10-23T23:11:52.551Z,19.90
2022-10-23T23:14:23.567Z,19.90
2022-10-23T23:16:54.585Z,19.90
2022-10-23T23:19:23.118Z,19.90
2022-10-23T23:21:50.390Z,19.90
2022-10-23T23:24:17.683Z,19.90
2022-10-23T23:26:44.726Z,19.90
2022-10-23T23:29:12.197Z,19.90
2022-10-23T23:31:39.402Z,19.90
2022-10-23T23:34:06.501Z,19.90
2022-10-23T23:36:33.825Z,19.90
2022-10-23T23:39:01.279Z,20.00
2022-10-23T23:41:29.386Z,20.00
2022-10-23T23:43:58.421Z,20.00
2022-10-23T23:46:26.223Z,20.00
2022-10-23T23:48:53.335Z,20.00
2022-10-23T23:51:23.233Z,19.90
2022-10-23T23:53:51.254Z,19.90
2022-10-23T23:56:19.317Z,20.00
2022-10-23T23:58:46.477Z,20.00
